createdAt,value
2023-04-02T00:02:55.196Z,101649.50
2023-04-02T00:08:10.391Z,101652.25
2023-04-02T00:13:12.040Z,101667.50
2023-04-02T00:18:20.868Z,101675.63
2023-04-02T00:23:25.553Z,101675.09
2023-04-02T00:28:29.281Z,101696.28
2023-04-02T00:33:34.509Z,101703.44
2023-04-02T00:38:36.897Z,101711.44
2023-04-02T00:43:46.832Z,101717.97
2023-04-02T00:48:56.452Z,101729.72
2023-04-02T00:54:01.745Z,101728.06
2023-04-02T00:59:20.381Z,101736.44
2023-04-02T01:04:28.858Z,101744.44
2023-04-02T01:10:07.840Z,101759.91
2023-04-02T01:15:30.252Z,101766.09
2023-04-02T01:20:44.103Z,101774.28
2023-04-02T01:25:54.935Z,101776.44
2023-04-02T01:31:01.879Z,101792.63
2023-04-02T01:36:19.298Z,101805.53
2023-04-02T01:41:29.794Z,101813.13
2023-04-02T01:46:33.561Z,101823.16
2023-04-02T01:51:40.955Z,101832.03
2023-04-02T01:56:48.911Z,101845.53
2023-04-02T02:01:59.216Z,101847.00
2023-04-02T02:07:01.654Z,101851.91
2023-04-02T02:12:09.853Z,101856.34
2023-04-02T02:17:17.590Z,101861.69
2023-04-02T02:22:37.175Z,101874.84
2023-04-02T02:27:42.134Z,101872.41
2023-04-02T02:33:01.391Z,101883.28
2023-04-02T02:38:36.511Z,101894.66
2023-04-02T02:43:56.414Z,101905.09
2023-04-02T02:49:00.897Z,101906.22
2023-04-02T02:54:04.393Z,101922.06
2023-04-02T02:59:09.279Z,101923.19
2023-04-02T03:04:21.036Z,101933.31
2023-04-02T03:09:32.433Z,101933.22
2023-04-02T03:15:19.160Z,101938.25
2023-04-02T03:20:24.286Z,101950.78
2023-04-02T03:25:40.566Z,101963.28
2023-04-02T03:30:46.420Z,101973.44
2023-04-02T03:36:14.557Z,101982.63
2023-04-02T03:41:29.306Z,101990.06
2023-04-02T03:46:36.694Z,102011.81
2023-04-02T03:52:14.536Z,102029.97
2023-04-02T03:57:31.750Z,102028.19
2023-04-02T04:02:48.685Z,102044.66
2023-04-02T04:07:53.932Z,102053.38
2023-04-02T04:13:04.470Z,102062.31
2023-04-02T04:18:34.754Z,102060.84
2023-04-02T04:23:49.882Z,102076.84
2023-04-02T04:29:00.528Z,102090.50
2023-04-02T04:34:16.114Z,102092.34
2023-04-02T04:39:29.694Z,102100.19
2023-04-02T04:44:42.478Z,102112.13
2023-04-02T04:49:47.454Z,102119.31
2023-04-02T04:54:51.240Z,102140.97
2023-04-02T05:00:11.231Z,102141.16
2023-04-02T05:05:29.216Z,102143.69
2023-04-02T05:10:50.529Z,102161.91
2023-04-02T05:16:05.244Z,102176.00
2023-04-02T05:21:18.352Z,102178.56
2023-04-02T05:26:32.243Z,102192.19
2023-04-02T05:31:44.945Z,102197.03
2023-04-02T05:36:53.856Z,102208.50
2023-04-02T05:42:08.323Z,102219.31
2023-04-02T05:47:31.514Z,102234.69
2023-04-02T05:52:41.674Z,102252.34
2023-04-02T05:58:13.584Z,102254.13
2023-04-02T06:04:00.889Z,102266.28
2023-04-02T06:09:14.349Z,102287.00
2023-04-02T06:14:17.334Z,102288.97
2023-04-02T06:19:32.347Z,102291.56
2023-04-02T06:24:37.564Z,102302.16
2023-04-02T06:29:42.674Z,102316.53
2023-04-02T06:34:51.081Z,102316.34
2023-04-02T06:39:54.253Z,102334.94
2023-04-02T06:44:58.318Z,102339.66
2023-04-02T06:50:49.929Z,102346.28
2023-04-02T06:55:58.917Z,102353.47
2023-04-02T07:01:09.495Z,102366.03
2023-04-02T07:06:19.229Z,102371.69
2023-04-02T07:11:23.111Z,102371.03
2023-04-02T07:16:30.572Z,102381.78
2023-04-02T07:21:32.842Z,102385.38
2023-04-02T07:26:37.763Z,102396.94
2023-04-02T07:31:53.014Z,102406.31
2023-04-02T07:36:54.858Z,102418.03
2023-04-02T07:41:58.704Z,102421.75
2023-04-02T07:47:00.661Z,102440.44
2023-04-02T07:52:02.893Z,102446.25
2023-04-02T07:57:04.811Z,102463.66
2023-04-02T08:02:06.927Z,102470.06
2023-04-02T08:07:11.075Z,102483.44
2023-04-02T08:12:18.144Z,102480.47
2023-04-02T08:17:28.128Z,102486.28
2023-04-02T08:22:35.106Z,102492.69
2023-04-02T08:27:37.157Z,102500.38
2023-04-02T08:32:43.966Z,102506.72
2023-04-02T08:37:45.717Z,102515.88
2023-04-02T08:42:59.804Z,102515.88
2023-04-02T08:48:03.533Z,102530.63
2023-04-02T08:53:14.262Z,102521.63
2023-04-02T08:58:43.807Z,102536.91
2023-04-02T09:03:47.814Z,102535.84
2023-04-02T09:08:51.360Z,102541.47
2023-04-02T09:13:58.456Z,102543.06
2023-04-02T09:19:02.934Z,102549.84
2023-04-02T09:24:07.081Z,102561.81
2023-04-02T09:29:11.779Z,102574.66
2023-04-02T09:34:33.719Z,102585.25
2023-04-02T09:39:38.164Z,102581.94
2023-04-02T09:44:42.174Z,102594.69
2023-04-02T09:49:44.234Z,102605.78
2023-04-02T09:54:47.711Z,102603.66
2023-04-02T10:00:29.750Z,102607.59
2023-04-02T10:10:43.647Z,102612.88
2023-04-02T10:15:56.308Z,102627.25
2023-04-02T10:21:03.940Z,102629.66
2023-04-02T10:26:50.312Z,102638.50
2023-04-02T10:32:21.778Z,102652.44
2023-04-02T10:37:27.360Z,102643.28
2023-04-02T10:42:50.638Z,102649.44
2023-04-02T10:48:03.225Z,102665.31
2023-04-02T10:53:24.147Z,102672.84
2023-04-02T10:58:29.490Z,102684.72
2023-04-02T11:03:41.681Z,102683.91
2023-04-02T11:08:51.662Z,102689.84
2023-04-02T11:14:02.990Z,102685.25
2023-04-02T11:19:16.728Z,102687.66
2023-04-02T11:24:37.183Z,102685.22
2023-04-02T11:29:39.224Z,102701.72
2023-04-02T11:35:02.908Z,102698.69
2023-04-02T11:40:19.188Z,102698.31
2023-04-02T11:45:23.286Z,102708.53
2023-04-02T11:50:38.045Z,102703.41
2023-04-02T11:55:43.186Z,102719.63
2023-04-02T12:01:11.741Z,102729.81
2023-04-02T12:06:25.771Z,102729.63
2023-04-02T12:11:37.598Z,102735.38
2023-04-02T12:16:44.000Z,102739.63
2023-04-02T12:21:47.508Z,102743.19
2023-04-02T12:26:52.656Z,102735.06
2023-04-02T12:31:58.433Z,102745.72
2023-04-02T12:37:08.341Z,102747.09
2023-04-02T12:42:28.145Z,102751.75
2023-04-02T12:47:30.454Z,102762.47
2023-04-02T12:52:32.840Z,102761.50
2023-04-02T12:57:36.396Z,102759.19
2023-04-02T13:02:48.639Z,102770.19
2023-04-02T13:07:55.482Z,102777.50
2023-04-02T13:13:05.105Z,102778.03
2023-04-02T13:18:12.835Z,102775.38
2023-04-02T13:23:31.126Z,102781.41
2023-04-02T13:28:32.918Z,102789.25
2023-04-02T13:33:39.565Z,102780.06
2023-04-02T13:38:41.485Z,102773.81
2023-04-02T13:43:43.366Z,102778.31
2023-04-02T13:48:45.034Z,102787.59
2023-04-02T13:53:51.558Z,102778.88
2023-04-02T13:58:53.750Z,102782.03
2023-04-02T14:03:58.331Z,102796.16
2023-04-02T14:09:09.701Z,102798.59
2023-04-02T14:14:40.149Z,102805.53
2023-04-02T14:20:13.367Z,102795.19
2023-04-02T14:25:39.944Z,102811.19
2023-04-02T14:30:49.976Z,102804.13
2023-04-02T14:36:00.356Z,102802.28
2023-04-02T14:41:05.662Z,102814.97
2023-04-02T14:46:11.396Z,102810.56
2023-04-02T14:51:47.196Z,102804.78
2023-04-02T14:57:16.944Z,102816.97
2023-04-02T15:02:24.769Z,102827.47
2023-04-02T15:07:31.469Z,102829.22
2023-04-02T15:12:36.538Z,102830.94
2023-04-02T15:17:40.408Z,102828.72
2023-04-02T15:22:53.824Z,102832.75
2023-04-02T15:28:40.897Z,102844.72
2023-04-02T15:34:09.025Z,102847.34
2023-04-02T15:39:37.843Z,102845.22
2023-04-02T15:44:58.645Z,102856.47
2023-04-02T15:50:29.416Z,102859.28
2023-04-02T15:55:40.752Z,102861.50
2023-04-02T16:01:14.039Z,102859.91
2023-04-02T16:06:29.149Z,102872.13
2023-04-02T16:11:40.248Z,102879.53
2023-04-02T16:16:42.870Z,102886.09
2023-04-02T16:21:50.437Z,102897.06
2023-04-02T16:26:57.580Z,102907.94
2023-04-02T16:32:07.856Z,102909.09
2023-04-02T16:37:24.118Z,102919.72
2023-04-02T16:42:31.210Z,102919.59
2023-04-02T16:48:04.869Z,102922.84
2023-04-02T16:53:24.312Z,102939.09
2023-04-02T16:58:48.420Z,102946.50
2023-04-02T17:04:15.033Z,102948.28
2023-04-02T17:09:27.956Z,102971.06
2023-04-02T17:14:45.308Z,102968.72
2023-04-02T17:19:50.435Z,102972.97
2023-04-02T17:25:00.867Z,102983.63
2023-04-02T17:30:31.769Z,102989.66
2023-04-02T17:35:47.795Z,102995.72
2023-04-02T17:40:56.147Z,102998.75
2023-04-02T17:46:03.772Z,103009.00
2023-04-02T17:51:16.920Z,103023.75
2023-04-02T17:56:49.988Z,103031.03
2023-04-02T18:01:57.761Z,103028.72
2023-04-02T18:07:11.398Z,103045.34
2023-04-02T18:12:19.035Z,103055.78
2023-04-02T18:17:30.493Z,103060.44
2023-04-02T18:22:32.500Z,103078.75
2023-04-02T18:28:02.836Z,103080.13
2023-04-02T18:33:20.612Z,103096.25
2023-04-02T18:38:40.968Z,103101.50
2023-04-02T18:43:48.810Z,103102.72
2023-04-02T18:49:01.392Z,103109.84
2023-04-02T18:54:14.604Z,103113.38
2023-04-02T18:59:35.543Z,103125.41
2023-04-02T19:04:40.340Z,103131.47
2023-04-02T19:09:44.615Z,103145.75
2023-04-02T19:14:50.946Z,103146.78
2023-04-02T19:20:18.818Z,103160.13
2023-04-02T19:25:39.323Z,103171.69
2023-04-02T19:30:56.598Z,103179.69
2023-04-02T19:36:22.188Z,103180.41
2023-04-02T19:41:35.104Z,103189.72
2023-04-02T19:46:37.907Z,103190.78
2023-04-02T19:51:39.819Z,103191.81
2023-04-02T19:56:44.310Z,103193.25
2023-04-02T20:01:48.224Z,103212.50
2023-04-02T20:06:54.918Z,103218.84
2023-04-02T20:11:56.988Z,103227.75
2023-04-02T20:17:03.678Z,103222.06
2023-04-02T20:22:10.740Z,103236.09
2023-04-02T20:27:15.408Z,103234.78
2023-04-02T20:32:17.684Z,103246.13
2023-04-02T20:37:22.336Z,103246.84
2023-04-02T20:42:25.590Z,103249.25
2023-04-02T20:47:27.355Z,103267.56
2023-04-02T20:52:30.318Z,103258.41
2023-04-02T20:57:36.632Z,103267.56
2023-04-02T21:02:38.504Z,103275.94
2023-04-02T21:07:40.299Z,103272.09
2023-04-02T21:12:44.284Z,103282.09
2023-04-02T21:17:48.247Z,103281.91
2023-04-02T21:22:52.262Z,103287.69
2023-04-02T21:27:56.034Z,103289.72
2023-04-02T21:33:00.295Z,103304.16
2023-04-02T21:38:04.286Z,103288.91
2023-04-02T21:43:08.467Z,103297.25
2023-04-02T21:48:12.634Z,103315.34
2023-04-02T21:53:14.320Z,103324.91
2023-04-02T21:58:15.999Z,103324.34
2023-04-02T22:03:30.967Z,103324.09
2023-04-02T22:08:37.708Z,103331.66
2023-04-02T22:13:40.450Z,103339.16
2023-04-02T22:18:42.976Z,103343.00
2023-04-02T22:23:47.567Z,103334.41
2023-04-02T22:28:49.651Z,103338.50
2023-04-02T22:33:55.295Z,103339.66
2023-04-02T22:39:05.014Z,103343.50
2023-04-02T22:44:13.344Z,103356.09
2023-04-02T22:49:19.706Z,103361.81
2023-04-02T22:54:26.275Z,103363.09
2023-04-02T22:59:27.932Z,103376.38
2023-04-02T23:04:34.123Z,103382.09
2023-04-02T23:09:36.398Z,103381.34
2023-04-02T23:14:40.791Z,103375.34
2023-04-02T23:19:42.419Z,103386.41
2023-04-02T23:24:46.643Z,103394.50
2023-04-02T23:29:49.567Z,103403.59
2023-04-02T23:34:51.274Z,103405.59
2023-04-02T23:39:55.359Z,103397.22
2023-04-02T23:44:57.060Z,103403.66
2023-04-02T23:49:59.451Z,103398.81
2023-04-02T23:55:03.516Z,103404.22
